Time;durP1;ratioP1;P1;durP2;ratioP2;P2;SDS_P1;SDS_P2;PMS_P1;PMS_P2;Temp;Humidity;BMP_temperature;BMP_pressure;BME280_temperature;BME280_humidity;BME280_pressure;Samples;Min_cycle;Max_cycle;Signal;HPM_P1;HPM_P2
2022/09/21 00:00:37;;;;;;;5.35;3.50;;;;;;;10.94;63.04;100140.69;7718066;32;39309;-80
2022/09/21 00:04:53;;;;;;;6.80;3.42;;;;;;;10.70;64.28;100140.31;7711386;32;40456;-77
2022/09/21 00:09:09;;;;;;;5.55;3.22;;;;;;;10.91;63.69;100138.50;7723848;32;38868;-79
2022/09/21 00:13:27;;;;;;;5.55;3.53;;;;;;;10.84;63.92;100144.19;7738971;32;37260;-80
2022/09/21 00:17:44;;;;;;;6.37;3.92;;;;;;;10.85;64.01;100143.13;7736489;32;39543;-78
2022/09/21 00:22:00;;;;;;;5.18;3.37;;;;;;;10.94;63.69;100137.16;7712563;32;39750;-78
2022/09/21 00:26:18;;;;;;;5.82;4.03;;;;;;;10.32;66.54;100144.97;7712330;32;37717;-79
2022/09/21 00:30:34;;;;;;;7.18;3.80;;;;;;;10.78;64.99;100134.34;7732788;32;36581;-80
2022/09/21 00:34:51;;;;;;;6.45;4.03;;;;;;;10.98;64.01;100147.25;7738938;32;39402;-79
2022/09/21 00:39:08;;;;;;;5.18;3.30;;;;;;;11.16;63.15;100145.16;7727895;32;40587;-79
2022/09/21 00:43:24;;;;;;;7.15;4.07;;;;;;;10.98;63.47;100149.19;7737502;32;37916;-80
2022/09/21 00:47:43;;;;;;;6.20;3.53;;;;;;;10.89;63.28;100148.84;7737012;32;37100;-79
2022/09/21 00:52:00;;;;;;;7.50;3.65;;;;;;;11.01;62.92;100144.00;7712213;32;39360;-77
2022/09/21 00:56:16;;;;;;;4.80;3.17;;;;;;;10.78;63.99;100148.00;7712915;32;40772;-76
2022/09/21 01:00:32;;;;;;;7.60;3.62;;;;;;;10.60;64.58;100149.22;7718207;32;37938;-76
2022/09/21 01:04:52;;;;;;;5.32;3.60;;;;;;;10.72;64.40;100151.75;7712019;32;37042;-77
2022/09/21 01:09:08;;;;;;;4.05;3.12;;;;;;;10.67;63.87;100147.09;7731357;32;39421;-79
2022/09/21 01:13:27;;;;;;;6.90;3.90;;;;;;;10.63;63.89;100153.34;7738511;32;39974;-79
2022/09/21 01:17:52;;;;;;;6.72;3.83;;;;;;;10.51;65.56;100148.91;7727315;32;38040;-79
2022/09/21 01:22:29;;;;;;;7.45;4.22;;;;;;;10.56;64.84;100155.50;7711921;32;36738;-77
2022/09/21 01:27:07;;;;;;;6.25;3.42;;;;;;;10.61;64.26;100158.25;7725964;32;40024;-78
2022/09/21 01:36:19;;;;;;;9.70;4.68;;;;;;;10.68;63.10;100153.38;7648510;27;20102;-78
2022/09/21 01:40:42;;;;;;;6.65;3.83;;;;;;;10.50;63.23;100157.34;7606345;32;37932;-78
2022/09/21 01:45:01;;;;;;;8.55;3.90;;;;;;;10.39;64.07;100159.19;7592155;32;39426;-77
2022/09/21 01:49:26;;;;;;;7.25;3.85;;;;;;;10.46;64.21;100165.22;7580461;33;40263;-78
2022/09/21 01:54:01;;;;;;;9.20;4.12;;;;;;;10.33;63.99;100162.94;7583982;32;38166;-78
2022/09/21 01:58:38;;;;;;;5.68;4.00;;;;;;;10.41;63.11;100164.38;7604781;32;37343;-76
2022/09/21 02:03:01;;;;;;;6.93;3.92;;;;;;;10.35;63.39;100166.25;7604658;32;39925;-77
2022/09/21 02:07:17;;;;;;;6.62;4.30;;;;;;;10.30;63.21;100161.53;7574067;32;40032;-77
2022/09/21 02:11:42;;;;;;;5.97;3.90;;;;;;;10.51;62.39;100162.53;7578836;33;37974;-77
2022/09/21 02:16:07;;;;;;;7.07;4.20;;;;;;;10.46;62.39;100167.94;7598604;32;36818;-77
2022/09/21 02:20:28;;;;;;;11.68;4.87;;;;;;;10.04;64.07;100174.12;7605773;32;40110;-77
2022/09/21 02:24:49;;;;;;;7.55;4.37;;;;;;;10.24;63.19;100175.38;7594564;32;40419;-77
2022/09/21 02:29:17;;;;;;;6.50;4.05;;;;;;;10.32;62.92;100173.03;7578674;33;38686;-77
2022/09/21 02:34:03;;;;;;;9.18;4.10;;;;;;;10.00;63.75;100175.72;7581553;32;36999;-78
2022/09/21 02:38:29;;;;;;;6.85;4.40;;;;;;;9.53;65.16;100190.78;7599980;32;39081;-77
2022/09/21 02:42:48;;;;;;;7.93;4.40;;;;;;;9.69;65.29;100191.78;7604434;32;39979;-78
2022/09/21 02:47:13;;;;;;;8.00;4.82;;;;;;;9.49;66.43;100192.38;7580652;32;37843;-78
2022/09/21 02:51:31;;;;;;;6.25;4.15;;;;;;;9.63;65.20;100187.34;7579460;32;37098;-78
2022/09/21 02:55:50;;;;;;;8.73;4.70;;;;;;;9.51;65.40;100189.41;7583626;32;39431;-78
2022/09/21 03:00:12;;;;;;;7.10;4.55;;;;;;;9.95;64.07;100192.84;7603954;32;40099;-79
2022/09/21 03:04:28;;;;;;;6.35;4.22;;;;;;;10.20;62.86;100185.16;7595726;32;37881;-77
2022/09/21 03:08:44;;;;;;;8.60;4.68;;;;;;;10.01;63.32;100193.72;7579104;33;37089;-78
2022/09/21 03:13:00;;;;;;;7.70;4.60;;;;;;;10.16;62.85;100206.66;7596600;32;39246;-78
2022/09/21 03:17:16;;;;;;;8.82;4.40;;;;;;;10.04;63.23;100204.09;7603820;32;40041;-77
2022/09/21 03:21:32;;;;;;;8.18;4.87;;;;;;;9.90;63.68;100208.31;7595362;32;38189;-79
2022/09/21 03:25:51;;;;;;;7.25;4.70;;;;;;;10.01;63.41;100209.25;7580330;32;37943;-79
2022/09/21 03:30:07;;;;;;;8.95;4.90;;;;;;;9.96;63.68;100201.84;7578234;32;39398;-76
2022/09/21 03:34:23;;;;;;;8.32;5.07;;;;;;;9.76;64.47;100213.34;7552622;33;39964;-79
2022/09/21 03:38:39;;;;;;;7.55;4.57;;;;;;;9.50;65.46;100215.78;7552540;33;37974;-78
2022/09/21 03:42:55;;;;;;;8.60;5.30;;;;;;;9.40;66.30;100224.66;7586444;32;37056;-79
2022/09/21 03:47:11;;;;;;;7.70;4.62;;;;;;;9.72;65.43;100223.91;7604045;32;39964;-79
2022/09/21 03:51:29;;;;;;;7.25;4.72;;;;;;;9.74;65.61;100223.66;7583938;32;40238;-79
2022/09/21 03:55:45;;;;;;;8.63;5.10;;;;;;;9.94;64.72;100225.78;7577973;33;36916;-77
2022/09/21 04:00:04;;;;;;;8.63;5.00;;;;;;;9.86;64.94;100234.41;7577718;32;37849;-76
2022/09/21 04:04:21;;;;;;;9.88;4.55;;;;;;;9.74;64.70;100229.09;7576812;33;39003;-79
2022/09/21 04:08:37;;;;;;;8.32;4.53;;;;;;;9.82;64.38;100230.56;7594440;32;39863;-78
2022/09/21 04:12:57;;;;;;;7.10;4.43;;;;;;;9.80;64.60;100246.34;7587710;32;37826;-78
2022/09/21 04:17:13;;;;;;;8.85;4.62;;;;;;;9.85;64.11;100238.19;7581467;33;37238;-79
2022/09/21 04:21:29;;;;;;;8.88;4.85;;;;;;;9.87;63.91;100244.25;7591546;32;39340;-80
2022/09/21 04:25:48;;;;;;;8.50;4.40;;;;;;;9.92;63.84;100245.09;7607114;32;40079;-79
2022/09/21 04:30:05;;;;;;;9.32;5.15;;;;;;;9.75;64.27;100244.37;7604232;32;37895;-78
2022/09/21 04:34:21;;;;;;;9.60;5.07;;;;;;;9.39;65.51;100244.75;7581068;33;37334;-79
2022/09/21 04:38:37;;;;;;;8.65;4.82;;;;;;;9.42;66.01;100256.22;7581128;32;39386;-79
2022/09/21 04:42:54;;;;;;;7.85;5.20;;;;;;;9.46;65.68;100246.47;7581836;32;40833;-78
2022/09/21 04:47:10;;;;;;;9.80;5.10;;;;;;;9.56;64.87;100265.66;7592878;32;38157;-78
2022/09/21 04:51:27;;;;;;;9.27;4.68;;;;;;;9.25;65.60;100261.72;7579222;32;37868;-76
2022/09/21 04:55:45;;;;;;;10.10;5.72;;;;;;;9.52;64.83;100267.22;7580932;33;39870;-78
2022/09/21 05:00:03;;;;;;;10.43;5.37;;;;;;;9.53;64.80;100264.25;7580877;33;40187;-78
2022/09/21 05:04:19;;;;;;;8.30;5.07;;;;;;;9.53;64.81;100258.00;7580942;33;38544;-78
2022/09/21 05:13:10;;;;;;;9.52;5.40;;;;;;;9.85;63.64;100270.87;7580925;33;39429;-76
2022/09/21 05:17:26;;;;;;;9.27;5.37;;;;;;;9.82;64.47;100271.41;7580756;33;39978;-76
2022/09/21 05:21:42;;;;;;;10.82;5.65;;;;;;;9.67;66.34;100274.78;7579601;33;38750;-75
2022/09/21 05:25:58;;;;;;;13.68;5.65;;;;;;;9.61;66.58;100287.50;7580776;33;37937;-75
2022/09/21 05:30:15;;;;;;;10.00;6.07;;;;;;;9.80;66.40;100285.28;7580588;33;40798;-76
2022/09/21 05:35:03;;;;;;;10.65;5.75;;;;;;;10.00;66.79;100272.97;7580398;33;40027;-77
2022/09/21 05:39:19;;;;;;;12.32;9.43;;;;;;;9.87;68.96;100287.81;7556741;32;37793;-75
2022/09/21 05:43:35;;;;;;;12.82;7.80;;;;;;;10.01;66.93;100291.78;7580518;33;38047;-75
2022/09/21 05:48:15;;;;;;;11.35;6.65;;;;;;;10.04;65.80;100296.72;7580365;33;40176;-76
2022/09/21 05:52:54;;;;;;;8.93;5.70;;;;;;;10.06;66.08;100293.75;7580350;33;40887;-78
2022/09/21 05:57:15;;;;;;;11.45;6.75;;;;;;;9.90;67.05;100290.84;7579351;33;38000;-77
2022/09/21 06:01:40;;;;;;;9.73;6.22;;;;;;;10.34;66.38;100284.50;7580237;33;37981;-76
2022/09/21 06:05:57;;;;;;;10.82;6.47;;;;;;;10.38;66.59;100282.09;7580358;33;39287;-76
2022/09/21 06:10:15;;;;;;;10.23;6.70;;;;;;;10.47;66.75;100289.56;7580106;33;40886;-75
2022/09/21 06:14:31;;;;;;;14.45;7.45;;;;;;;10.18;68.04;100293.59;7579900;33;38509;-77
2022/09/21 06:18:47;;;;;;;10.43;6.65;;;;;;;9.44;70.34;100303.88;7579980;33;37920;-76
2022/09/21 06:23:08;;;;;;;15.02;7.72;;;;;;;9.84;70.39;100296.50;7580017;33;38893;-77
2022/09/21 06:27:24;;;;;;;10.68;6.47;;;;;;;10.23;69.20;100296.38;7579946;33;38898;-77
2022/09/21 06:31:40;;;;;;;12.73;7.45;;;;;;;10.01;69.25;100291.78;7579399;33;38747;-77
2022/09/21 06:35:58;;;;;;;10.52;6.45;;;;;;;10.49;68.40;100297.47;7579603;33;37137;-77
2022/09/21 06:40:14;;;;;;;10.88;6.43;;;;;;;10.52;69.14;100300.50;7579686;33;38394;-77
2022/09/21 06:44:30;;;;;;;10.77;6.10;;;;;;;10.81;67.67;100294.72;7579472;33;39964;-76
2022/09/21 06:48:47;;;;;;;8.52;5.72;;;;;;;11.03;67.67;100293.78;7579343;33;37987;-77
2022/09/21 06:53:03;;;;;;;10.02;6.03;;;;;;;11.39;66.54;100299.47;7579364;33;37136;-79
2022/09/21 06:57:19;;;;;;;9.30;5.35;;;;;;;11.65;66.11;100303.97;7578005;33;39273;-79
2022/09/21 07:01:35;;;;;;;7.85;4.70;;;;;;;11.48;65.73;100302.53;7578869;33;39859;-79
2022/09/21 07:05:52;;;;;;;8.77;5.30;;;;;;;11.09;66.38;100317.31;7578835;33;37758;-77
2022/09/21 07:10:08;;;;;;;8.38;4.90;;;;;;;10.84;67.15;100318.75;7578871;33;37911;-77
2022/09/21 07:14:30;;;;;;;8.40;5.15;;;;;;;11.75;64.82;100321.50;7577838;33;39318;-78
2022/09/21 07:18:47;;;;;;;9.25;5.25;;;;;;;11.13;66.45;100326.59;7578634;33;39894;-78
2022/09/21 07:23:10;;;;;;;9.77;5.15;;;;;;;11.37;66.19;100320.75;7578763;33;38752;-77
2022/09/21 07:27:28;;;;;;;6.60;4.57;;;;;;;11.40;66.07;100314.75;7578814;33;36825;-78
2022/09/21 07:31:44;;;;;;;9.77;4.50;;;;;;;11.72;64.29;100313.84;7578441;33;39499;-77
2022/09/21 07:36:02;;;;;;;9.27;4.70;;;;;;;11.76;64.39;100320.41;7578337;33;38541;-78
2022/09/21 07:40:18;;;;;;;7.57;4.22;;;;;;;11.18;65.28;100320.38;7578162;33;37922;-81
2022/09/21 07:44:40;;;;;;;8.55;4.55;;;;;;;11.40;65.04;100317.47;7579965;33;38027;-79
2022/09/21 07:48:57;;;;;;;7.85;4.43;;;;;;;11.73;63.81;100318.19;7581772;33;39900;-76
2022/09/21 07:53:15;;;;;;;9.77;5.85;;;;;;;11.81;64.10;100323.16;7581583;33;39764;-78
2022/09/21 08:02:05;;;;;;;9.02;4.95;;;;;;;11.38;65.65;100325.13;7581649;33;37102;-78
2022/09/21 08:06:22;;;;;;;11.32;4.85;;;;;;;12.10;64.50;100317.28;7581471;33;39509;-77
2022/09/21 08:10:38;;;;;;;7.65;4.32;;;;;;;12.35;62.81;100311.87;7581426;33;39923;-79
2022/09/21 08:14:54;;;;;;;14.10;5.00;;;;;;;12.37;62.65;100315.16;7581380;33;37769;-78
2022/09/21 08:19:11;;;;;;;7.72;4.50;;;;;;;12.47;62.63;100313.50;7581322;33;36797;-79
2022/09/21 08:23:28;;;;;;;6.35;4.20;;;;;;;13.43;59.54;100314.56;7581224;33;40082;-79
2022/09/21 08:27:44;;;;;;;6.15;3.55;;;;;;;13.53;59.77;100321.94;7581285;33;39976;-79
2022/09/21 08:32:01;;;;;;;7.55;4.57;;;;;;;12.98;60.61;100323.66;7581160;33;38171;-78
2022/09/21 08:36:18;;;;;;;6.43;4.30;;;;;;;12.81;61.42;100321.19;7581106;33;37946;-79
2022/09/21 08:40:34;;;;;;;7.37;3.90;;;;;;;12.84;61.82;100323.41;7579847;33;40145;-79
2022/09/21 08:45:04;;;;;;;9.05;4.10;;;;;;;13.05;60.63;100325.00;7581035;33;39759;-79
2022/09/21 08:49:23;;;;;;;6.32;3.72;;;;;;;13.35;60.04;100328.84;7588302;32;38025;-78
2022/09/21 08:53:42;;;;;;;11.40;3.90;;;;;;;13.83;59.91;100323.78;7580202;33;37056;-77
2022/09/21 08:58:00;;;;;;;5.75;3.42;;;;;;;14.07;59.48;100323.09;7583353;32;39583;-78
2022/09/21 09:02:37;;;;;;;5.47;3.28;;;;;;;13.78;58.79;100315.56;7581974;32;40816;-79
2022/09/21 09:06:58;;;;;;;4.57;3.08;;;;;;;13.41;60.02;100305.81;7593369;32;37698;-78
2022/09/21 09:11:27;;;;;;;7.82;4.40;;;;;;;13.90;58.70;100307.84;7589090;32;37266;-79
2022/09/21 09:16:15;;;;;;;5.18;2.70;;;;;;;14.22;58.11;100303.00;7593513;32;40142;-79
2022/09/21 09:20:35;;;;;;;4.45;2.33;;;;;;;14.89;55.59;100299.81;7587408;32;40019;-78
2022/09/21 09:24:55;;;;;;;8.65;2.17;;;;;;;15.22;51.81;100292.62;7580612;33;38682;-79
2022/09/21 09:29:17;;;;;;;4.62;2.30;;;;;;;15.38;51.68;100305.09;7584650;32;37020;-81
2022/09/21 09:34:11;;;;;;;3.10;2.30;;;;;;;14.91;52.05;100295.66;7584143;32;39170;-78
2022/09/21 09:38:37;;;;;;;3.97;1.98;;;;;;;15.35;51.01;100294.69;7562280;32;40844;-77
2022/09/21 09:43:08;;;;;;;3.35;2.40;;;;;;;16.17;49.19;100281.03;7605729;32;37870;-76
2022/09/21 09:47:35;;;;;;;3.92;2.00;;;;;;;16.63;48.11;100269.31;7601729;32;37143;-78
2022/09/21 09:51:51;;;;;;;4.20;1.83;;;;;;;17.36;46.31;100277.97;7585577;32;39389;-79
2022/09/21 09:56:09;;;;;;;2.37;1.67;;;;;;;17.75;46.69;100276.62;7590842;32;40037;-80
2022/09/21 10:00:25;;;;;;;2.22;1.80;;;;;;;17.93;43.81;100266.63;7603875;32;37990;-78
2022/09/21 10:05:00;;;;;;;1.48;1.20;;;;;;;18.11;44.62;100273.09;7605134;32;36985;-78
2022/09/21 10:09:33;;;;;;;3.92;1.77;;;;;;;18.56;43.22;100259.38;7599565;32;39504;-78
2022/09/21 10:13:51;;;;;;;2.42;1.40;;;;;;;18.30;40.07;100265.50;7581566;32;40074;-77
2022/09/21 10:18:11;;;;;;;2.33;1.75;;;;;;;18.69;41.59;100255.69;7585202;32;38774;-83
2022/09/21 10:22:29;;;;;;;4.32;1.70;;;;;;;19.41;39.08;100248.28;7577093;32;37685;-79
2022/09/21 10:27:24;;;;;;;4.57;1.50;;;;;;;19.32;39.50;100252.97;7591631;32;39104;-81
2022/09/21 10:31:52;;;;;;;2.47;1.50;;;;;;;20.22;37.18;100247.00;7562401;32;40977;-79
2022/09/21 10:36:23;;;;;;;1.85;1.23;;;;;;;20.98;36.11;100231.75;7571541;32;38058;-82
2022/09/21 10:40:39;;;;;;;2.45;1.33;;;;;;;21.13;36.11;100232.38;7585094;32;37374;-81
2022/09/21 10:45:27;;;;;;;2.08;1.65;;;;;;;20.39;37.10;100235.09;7605349;32;39364;-81
2022/09/21 10:49:49;;;;;;;1.98;1.30;;;;;;;20.88;36.75;100237.63;7589871;32;39587;-83
2022/09/21 10:54:08;;;;;;;1.40;1.30;;;;;;;20.72;38.01;100233.78;7587383;32;38923;-80
2022/09/21 10:58:24;;;;;;;1.20;1.10;;;;;;;21.47;35.31;100231.41;7580493;32;37065;-81
2022/09/21 11:02:41;;;;;;;1.85;1.30;;;;;;;21.81;34.53;100218.47;7577740;32;38719;-82
2022/09/21 11:07:16;;;;;;;1.20;1.10;;;;;;;22.09;34.82;100218.75;7589699;32;40842;-81
2022/09/21 11:11:57;;;;;;;2.08;1.45;;;;;;;22.58;33.10;100214.59;7578975;32;39106;-81
2022/09/21 11:16:39;;;;;;;1.33;1.10;;;;;;;22.81;32.50;100207.44;7587297;32;37272;-82
2022/09/21 11:21:22;;;;;;;1.33;1.12;;;;;;;21.90;32.76;100210.06;7580112;33;40097;-84
2022/09/21 11:25:54;;;;;;;5.17;1.30;;;;;;;22.06;33.10;100202.78;7562046;32;39857;-83
2022/09/21 11:30:15;;;;;;;3.60;1.42;;;;;;;20.85;35.09;100207.00;7595734;32;38052;-82
2022/09/21 11:35:16;;;;;;;2.22;1.23;;;;;;;19.92;36.73;100214.75;7583874;32;37770;-75
2022/09/21 11:39:49;;;;;;;1.25;1.15;;;;;;;19.97;38.28;100215.41;7567062;32;39010;-82
2022/09/21 11:44:37;;;;;;;1.52;1.20;;;;;;;19.12;37.71;100210.94;7578601;33;40003;-79
2022/09/21 11:49:26;;;;;;;2.10;1.33;;;;;;;18.79;39.32;100209.63;7577454;33;37900;-80
2022/09/21 11:54:03;;;;;;;1.65;1.27;;;;;;;18.54;40.39;100198.09;7578400;33;37792;-80
2022/09/21 11:58:39;;;;;;;2.28;1.25;;;;;;;20.32;36.33;100175.84;7580592;33;38941;-81
2022/09/21 12:03:12;;;;;;;1.87;1.30;;;;;;;19.81;38.29;100179.09;7549145;32;39904;-80
2022/09/21 12:07:59;;;;;;;1.95;1.00;;;;;;;19.22;37.52;100176.69;7580295;33;37777;-81
2022/09/21 12:12:22;;;;;;;1.83;1.50;;;;;;;19.26;38.01;100180.41;7581520;33;37320;-82
2022/09/21 12:16:49;;;;;;;2.22;1.00;;;;;;;20.06;37.15;100163.66;7581730;33;39792;-81
2022/09/21 12:21:12;;;;;;;1.20;1.10;;;;;;;19.42;37.02;100161.47;7577775;33;40770;-77
2022/09/21 12:25:37;;;;;;;2.62;1.10;;;;;;;19.14;35.84;100164.47;7578129;33;37596;-81
2022/09/21 12:29:58;;;;;;;0.80;0.80;;;;;;;20.04;36.06;100154.03;7577859;33;37517;-81
2022/09/21 12:34:17;;;;;;;1.58;1.10;;;;;;;19.95;33.45;100156.78;7578375;33;38966;-82
2022/09/21 12:38:39;;;;;;;1.27;0.85;;;;;;;20.54;33.94;100155.41;7592385;32;39995;-83
2022/09/21 12:43:24;;;;;;;2.03;0.93;;;;;;;21.63;30.43;100145.66;7579963;33;37898;-82
2022/09/21 12:47:43;;;;;;;1.25;0.93;;;;;;;20.97;33.64;100151.69;7558255;32;36796;-84
2022/09/21 12:52:05;;;;;;;0.95;0.90;;;;;;;20.61;33.47;100156.53;7581042;33;40059;-82
2022/09/21 12:56:44;;;;;;;1.45;0.95;;;;;;;20.08;36.10;100149.47;7581071;33;40784;-82
2022/09/21 13:01:08;;;;;;;4.37;1.98;;;;;;;21.08;34.10;100152.16;7579826;33;37861;-82
2022/09/21 13:05:37;;;;;;;3.12;1.25;;;;;;;21.94;31.48;100141.66;7579969;33;37624;-82
2022/09/21 13:09:54;;;;;;;1.00;0.98;;;;;;;22.38;31.13;100144.81;7580971;33;39296;-82
2022/09/21 13:14:11;;;;;;;1.98;1.20;;;;;;;22.76;29.03;100140.16;7579685;33;39618;-80
2022/09/21 13:18:39;;;;;;;2.78;0.90;;;;;;;22.61;28.68;100145.25;7579544;33;37610;-80
2022/09/21 13:23:01;;;;;;;2.22;1.10;;;;;;;22.56;30.15;100130.75;7580838;33;37042;-80
2022/09/21 13:27:17;;;;;;;2.55;0.90;;;;;;;21.47;29.93;100130.75;7580842;33;39316;-81
2022/09/21 13:31:56;;;;;;;1.02;0.90;;;;;;;21.88;30.17;100123.56;7580667;33;39892;-80
2022/09/21 13:36:40;;;;;;;2.15;0.98;;;;;;;21.21;30.86;100131.69;7580149;33;38600;-81
2022/09/21 13:41:01;;;;;;;4.00;1.25;;;;;;;21.57;30.50;100116.47;7577737;32;37921;-81
2022/09/21 13:45:18;;;;;;;1.62;0.75;;;;;;;21.88;31.04;100124.38;7579517;33;39338;-82
2022/09/21 13:49:41;;;;;;;1.35;0.80;;;;;;;22.06;28.47;100113.09;7580419;33;39996;-82
2022/09/21 13:54:00;;;;;;;0.77;0.73;;;;;;;22.19;28.55;100117.56;7580538;33;38103;-82
2022/09/21 13:58:33;;;;;;;0.98;0.80;;;;;;;22.98;28.44;100117.47;7580505;33;37699;-82
2022/09/21 14:02:49;;;;;;;1.35;0.93;;;;;;;22.60;29.76;100123.38;7579466;32;39315;-81
2022/09/21 14:07:07;;;;;;;1.60;1.08;;;;;;;21.32;33.40;100132.94;7580282;33;40780;-82
2022/09/21 14:11:38;;;;;;;1.75;1.10;;;;;;;21.30;34.71;100145.50;7578959;33;37594;-83
2022/09/21 14:16:14;;;;;;;1.17;1.08;;;;;;;21.03;37.27;100127.41;7579038;33;37105;-83
2022/09/21 14:20:32;;;;;;;1.92;1.10;;;;;;;20.40;37.19;100127.91;7579466;33;39142;-81
2022/09/21 14:25:24;;;;;;;1.25;1.15;;;;;;;21.20;35.58;100119.78;7578881;33;40027;-81
2022/09/21 14:30:03;;;;;;;2.28;1.00;;;;;;;21.79;30.42;100111.75;7579890;33;38135;-82
2022/09/21 14:34:30;;;;;;;0.83;0.83;;;;;;;22.42;30.03;100119.94;7579872;33;36783;-80
2022/09/21 14:38:57;;;;;;;0.70;0.60;;;;;;;21.86;30.42;100121.13;7578788;33;40136;-80
2022/09/21 14:43:20;;;;;;;1.08;0.98;;;;;;;21.81;29.94;100123.31;7579741;33;40568;-81
2022/09/21 14:47:54;;;;;;;2.55;1.00;;;;;;;21.77;30.39;100123.19;7579756;33;38817;-82
2022/09/21 14:52:24;;;;;;;1.37;1.20;;;;;;;21.37;31.13;100138.28;7579378;33;37235;-81
2022/09/21 14:56:53;;;;;;;0.98;0.90;;;;;;;21.34;30.81;100135.37;7579590;33;39398;-80
2022/09/21 15:01:19;;;;;;;0.85;0.70;;;;;;;21.14;30.17;100128.63;7579426;33;39641;-82
2022/09/21 15:05:39;;;;;;;1.50;0.98;;;;;;;21.43;30.03;100130.56;7579185;33;38006;-75
2022/09/21 15:14:37;;;;;;;1.60;0.82;;;;;;;20.90;32.04;100143.91;7579079;33;40029;-78
2022/09/21 15:19:26;;;;;;;1.12;1.00;;;;;;;20.86;30.80;100148.50;7578919;33;40039;-81
2022/09/21 15:23:42;;;;;;;0.95;0.95;;;;;;;21.17;30.73;100147.38;7577571;33;38824;-81
2022/09/21 15:27:59;;;;;;;0.90;0.85;;;;;;;20.80;31.39;100152.63;7578718;33;37823;-76
2022/09/21 15:32:28;;;;;;;1.85;1.20;;;;;;;20.22;32.34;100155.66;7577415;33;40042;-74
2022/09/21 15:36:47;;;;;;;1.92;1.10;;;;;;;19.38;34.63;100159.66;7575512;33;40560;-73
2022/09/21 15:41:05;;;;;;;1.27;1.00;;;;;;;18.84;35.91;100168.91;7578297;33;37913;-74
2022/09/21 15:45:45;;;;;;;1.37;1.07;;;;;;;19.17;34.98;100162.22;7577022;33;37127;-75
2022/09/21 15:50:02;;;;;;;2.20;1.08;;;;;;;19.23;34.83;100160.91;7577046;33;40292;-75
2022/09/21 15:54:47;;;;;;;1.80;1.23;;;;;;;19.75;34.40;100169.34;7578081;33;40141;-75
2022/09/21 15:59:07;;;;;;;3.15;1.15;;;;;;;21.73;30.63;100161.88;7576938;33;37827;-76
2022/09/21 16:03:24;;;;;;;2.37;1.33;;;;;;;20.14;32.22;100167.53;7577709;33;37019;-75
2022/09/21 16:07:41;;;;;;;2.65;1.37;;;;;;;20.66;32.33;100174.16;7581352;33;39045;-76
2022/09/21 16:11:57;;;;;;;1.15;0.82;;;;;;;23.24;28.19;100172.75;7581545;33;40113;-76
2022/09/21 16:16:14;;;;;;;1.35;1.00;;;;;;;24.57;26.27;100175.09;7581297;33;38789;-76
2022/09/21 16:20:46;;;;;;;1.52;0.90;;;;;;;24.31;26.85;100179.16;7581339;33;37867;-78
2022/09/21 16:25:11;;;;;;;1.25;1.05;;;;;;;24.76;25.93;100182.75;7581252;33;39319;-75
2022/09/21 16:29:42;;;;;;;3.35;1.20;;;;;;;23.90;26.87;100192.28;7581253;33;39852;-76
2022/09/21 16:34:06;;;;;;;2.97;1.12;;;;;;;23.08;28.34;100196.87;7579877;33;38841;-76
2022/09/21 16:38:22;;;;;;;3.17;1.17;;;;;;;21.89;30.38;100198.16;7581244;33;37347;-76
2022/09/21 16:42:39;;;;;;;3.72;1.50;;;;;;;21.24;31.95;100205.06;7580995;33;39441;-76
2022/09/21 16:47:00;;;;;;;2.58;1.52;;;;;;;19.33;35.39;100213.97;7591980;32;38542;-77
2022/09/21 16:51:21;;;;;;;2.05;1.35;;;;;;;18.87;36.31;100217.19;7579695;33;38543;-75
2022/09/21 16:55:37;;;;;;;1.35;1.00;;;;;;;18.58;38.15;100222.00;7580964;33;37773;-75
2022/09/21 16:59:53;;;;;;;1.87;1.10;;;;;;;17.84;39.49;100230.66;7580983;33;40061;-76
2022/09/21 17:04:12;;;;;;;3.78;1.10;;;;;;;17.96;39.37;100236.47;7580883;33;39968;-76
2022/09/21 17:08:29;;;;;;;2.40;1.30;;;;;;;17.24;40.40;100239.88;7579728;33;38817;-75
2022/09/21 17:12:45;;;;;;;1.73;1.50;;;;;;;16.79;42.18;100243.16;7580818;33;36857;-74
2022/09/21 17:17:16;;;;;;;2.58;1.52;;;;;;;16.85;42.19;100239.22;7580694;33;39320;-75
2022/09/21 17:21:32;;;;;;;1.92;1.40;;;;;;;16.39;43.93;100252.94;7581085;32;39137;-75
2022/09/21 17:25:48;;;;;;;3.85;1.48;;;;;;;16.17;44.68;100253.53;7584753;32;38185;-79
2022/09/21 17:30:12;;;;;;;4.05;1.50;;;;;;;15.90;45.40;100252.25;7582736;32;37953;-73
2022/09/21 17:34:30;;;;;;;2.72;1.80;;;;;;;15.42;46.66;100258.63;7587267;32;38961;-76
2022/09/21 17:38:47;;;;;;;2.08;1.75;;;;;;;15.15;47.79;100275.66;7592387;32;38920;-75
2022/09/21 17:43:12;;;;;;;3.22;1.80;;;;;;;15.66;46.38;100275.09;7576776;32;38011;-76
2022/09/21 17:47:31;;;;;;;4.30;3.25;;;;;;;14.78;48.86;100280.69;7554787;33;37869;-77
2022/09/21 17:56:39;;;;;;;3.67;2.00;;;;;;;14.61;50.19;100289.31;7573554;32;40887;-76
2022/09/21 18:01:00;;;;;;;3.37;2.72;;;;;;;14.85;49.31;100299.56;7587716;32;37804;-75
2022/09/21 18:05:28;;;;;;;3.25;2.10;;;;;;;14.48;51.02;100294.63;7572197;32;263644;-76
2022/09/21 18:09:44;;;;;;;2.95;1.75;;;;;;;14.02;52.04;100295.72;7580317;33;39205;-75
2022/09/21 18:14:28;;;;;;;2.95;2.10;;;;;;;14.17;51.64;100298.37;7581874;32;39663;-76
2022/09/21 18:19:22;;;;;;;4.35;2.10;;;;;;;14.10;51.98;100300.59;7593418;32;37847;-76
2022/09/21 18:24:00;;;;;;;2.97;2.25;;;;;;;14.32;51.38;100308.44;7530763;32;37574;-75
2022/09/21 18:28:41;;;;;;;7.75;2.70;;;;;;;14.19;52.11;100307.12;7579241;33;40111;-75
2022/09/21 18:33:00;;;;;;;4.45;2.47;;;;;;;14.33;51.66;100309.25;7580473;32;40001;-74
2022/09/21 18:37:44;;;;;;;5.43;2.25;;;;;;;14.37;51.73;100321.31;7587646;32;38208;-74
2022/09/21 18:42:30;;;;;;;5.00;2.58;;;;;;;14.41;51.70;100306.72;7579435;33;38379;-74
2022/09/21 18:47:05;;;;;;;3.20;2.00;;;;;;;14.11;52.54;100305.00;7579885;32;40123;-74
2022/09/21 18:51:24;;;;;;;5.78;2.28;;;;;;;14.05;53.85;100311.59;7553693;33;39720;-74
2022/09/21 18:55:41;;;;;;;3.33;1.92;;;;;;;14.32;52.91;100319.41;7574258;32;38889;-75
2022/09/21 18:59:58;;;;;;;3.33;2.10;;;;;;;14.18;53.09;100316.47;7605008;32;35746;-74
2022/09/21 19:04:19;;;;;;;4.70;1.85;;;;;;;14.02;53.19;100323.97;7579396;32;39838;-76
2022/09/21 19:09:02;;;;;;;5.05;2.25;;;;;;;14.03;53.30;100335.75;7590018;32;39748;-75
2022/09/21 19:13:30;;;;;;;3.72;2.17;;;;;;;13.88;54.42;100326.50;7571985;33;38061;-76
2022/09/21 19:18:12;;;;;;;3.40;2.40;;;;;;;13.88;54.08;100340.19;7602051;32;37051;-75
2022/09/21 19:23:14;;;;;;;5.00;2.50;;;;;;;13.82;53.95;100338.56;7604579;32;39282;-75
2022/09/21 19:27:41;;;;;;;4.20;2.20;;;;;;;13.47;55.72;100345.81;7586306;32;40760;-75
2022/09/21 19:31:57;;;;;;;4.30;2.30;;;;;;;13.58;55.13;100332.09;7583382;32;38270;-74
2022/09/21 19:36:14;;;;;;;4.20;2.50;;;;;;;13.53;54.91;100325.50;7578913;32;37293;-75
2022/09/21 19:40:32;;;;;;;2.90;2.00;;;;;;;13.59;54.37;100322.75;7578949;33;39396;-74
2022/09/21 19:45:05;;;;;;;3.03;2.30;;;;;;;13.67;54.19;100330.41;7581405;33;38958;-76
2022/09/21 19:49:24;;;;;;;5.43;2.80;;;;;;;13.66;53.99;100331.47;7581641;33;38038;-74
2022/09/21 20:03:35;;;;;;;3.62;2.15;;;;;;;13.15;54.72;100330.47;7555691;33;40863;-76
2022/09/21 20:08:20;;;;;;;7.10;2.50;;;;;;;13.09;54.51;100331.59;7594165;32;37652;-76
2022/09/21 20:13:05;;;;;;;3.97;2.40;;;;;;;12.88;55.31;100340.91;7607336;32;36803;-75
2022/09/21 20:17:31;;;;;;;5.07;2.35;;;;;;;12.71;55.55;100335.69;7557627;32;40200;-75
2022/09/21 20:21:53;;;;;;;3.97;2.28;;;;;;;12.68;55.70;100330.78;7580203;33;40574;-74
2022/09/21 20:26:24;;;;;;;4.05;2.42;;;;;;;12.78;55.41;100345.28;7581198;33;37728;-75
2022/09/21 20:30:40;;;;;;;5.93;2.40;;;;;;;12.78;54.96;100348.03;7579985;33;37133;-75
2022/09/21 20:34:56;;;;;;;6.07;3.03;;;;;;;12.86;54.69;100345.84;7589690;32;40564;-75
2022/09/21 20:39:12;;;;;;;7.40;2.67;;;;;;;12.80;54.80;100349.66;7606915;32;39930;-75
2022/09/21 20:43:30;;;;;;;5.25;2.62;;;;;;;12.86;54.35;100349.37;7606832;32;38597;-75
2022/09/21 20:47:51;;;;;;;5.07;2.90;;;;;;;12.95;54.20;100360.59;7606924;32;36087;-75
2022/09/21 20:52:09;;;;;;;4.55;2.60;;;;;;;12.81;54.77;100354.03;7606511;32;39286;-76
2022/09/21 20:56:25;;;;;;;7.72;3.00;;;;;;;12.63;55.02;100358.94;7605409;32;39731;-76
2022/09/21 21:00:41;;;;;;;4.70;2.55;;;;;;;12.57;55.11;100358.13;7606591;32;38368;-74